Time;durP1;ratioP1;P1;durP2;ratioP2;P2;SDS_P1;SDS_P2;PMS_P1;PMS_P2;Temp;Humidity;BMP_temperature;BMP_pressure;BME280_temperature;BME280_humidity;BME280_pressure;Samples;Min_cycle;Max_cycle;Signal;HPM_P1;HPM_P2
2023/12/11 00:01:13;;;;;;;;;;;5.40;99.90;;;;;;5032371;28;20600;-89
2023/12/11 00:03:47;;;;;;;;;;;5.40;99.90;;;;;;5054488;28;19912;-89
2023/12/11 00:06:16;;;;;;;;;;;5.40;99.90;;;;;;5020181;28;19913;-89
2023/12/11 00:08:41;;;;;;;;;;;5.50;99.90;;;;;;5023671;28;19909;-89
2023/12/11 00:11:09;;;;;;;;;;;5.50;99.90;;;;;;5037368;28;19919;-89
2023/12/11 00:13:36;;;;;;;;;;;5.50;99.90;;;;;;5022308;28;19921;-90
2023/12/11 00:16:02;;;;;;;;;;;5.40;99.90;;;;;;5021496;28;19909;-89
2023/12/11 00:18:28;;;;;;;;;;;5.40;99.90;;;;;;5020626;28;19913;-88
2023/12/11 00:20:57;;;;;;;;;;;5.50;99.90;;;;;;5076704;28;19991;-90
2023/12/11 00:23:23;;;;;;;;;;;5.40;99.90;;;;;;5040833;28;19916;-89
2023/12/11 00:25:52;;;;;;;;;;;5.40;99.90;;;;;;5006012;28;19916;-89
2023/12/11 00:28:17;;;;;;;;;;;5.40;99.90;;;;;;5041891;28;19971;-88
2023/12/11 00:30:43;;;;;;;;;;;5.40;99.90;;;;;;5022110;28;19944;-86
2023/12/11 00:33:09;;;;;;;;;;;5.40;99.90;;;;;;5035296;28;19912;-89
2023/12/11 00:35:35;;;;;;;;;;;5.30;99.90;;;;;;5024246;28;19912;-89
2023/12/11 00:38:00;;;;;;;;;;;5.30;99.90;;;;;;5044037;28;20392;-89
2023/12/11 00:40:26;;;;;;;;;;;5.30;99.90;;;;;;5037251;28;19912;-88
2023/12/11 00:42:52;;;;;;;;;;;5.20;99.90;;;;;;5028687;28;20004;-87
2023/12/11 00:45:18;;;;;;;;;;;5.20;99.90;;;;;;5038226;28;19909;-87
2023/12/11 00:47:43;;;;;;;;;;;5.30;99.90;;;;;;5037979;28;19913;-87
2023/12/11 00:50:09;;;;;;;;;;;5.20;99.90;;;;;;5038638;28;19915;-91
2023/12/11 00:52:35;;;;;;;;;;;5.20;99.90;;;;;;5037653;28;19966;-91
2023/12/11 00:55:02;;;;;;;;;;;5.30;99.90;;;;;;5037119;28;19915;-91
2023/12/11 00:57:28;;;;;;;;;;;5.30;99.90;;;;;;5040132;28;19908;-89
2023/12/11 00:59:54;;;;;;;;;;;5.30;99.90;;;;;;5035292;28;19915;-91
2023/12/11 01:02:19;;;;;;;;;;;5.30;99.90;;;;;;5020713;28;20011;-89
2023/12/11 01:04:45;;;;;;;;;;;5.30;99.90;;;;;;5017214;28;19920;-91
2023/12/11 01:07:11;;;;;;;;;;;5.40;99.90;;;;;;5056533;28;19916;-90
2023/12/11 01:09:37;;;;;;;;;;;5.40;99.90;;;;;;5054924;28;19913;-92
2023/12/11 01:12:08;;;;;;;;;;;5.40;99.90;;;;;;5022623;28;19904;-90
2023/12/11 01:14:34;;;;;;;;;;;5.50;99.90;;;;;;5016318;28;20426;-89
2023/12/11 01:16:59;;;;;;;;;;;5.50;99.90;;;;;;5033225;28;20028;-89
2023/12/11 01:19:25;;;;;;;;;;;5.50;99.90;;;;;;5036819;28;19908;-89
2023/12/11 01:21:51;;;;;;;;;;;5.50;99.90;;;;;;5042518;28;20409;-89
2023/12/11 01:27:48;;;;;;;;;;;5.50;99.90;;;;;;5065235;28;19916;-88
2023/12/11 01:33:55;;;;;;;;;;;5.60;99.90;;;;;;5049407;28;19918;-90
2023/12/11 01:36:21;;;;;;;;;;;5.50;99.90;;;;;;5018231;28;19909;-89
2023/12/11 01:38:49;;;;;;;;;;;5.50;99.90;;;;;;5019601;28;19952;-90
2023/12/11 01:41:16;;;;;;;;;;;5.50;99.90;;;;;;5046359;28;19905;-89
2023/12/11 01:43:50;;;;;;;;;;;5.50;99.90;;;;;;5047765;28;19958;-91
2023/12/11 01:46:18;;;;;;;;;;;5.50;99.90;;;;;;5030047;28;19996;-89
2023/12/11 01:48:44;;;;;;;;;;;5.50;99.90;;;;;;5019216;28;19948;-89
2023/12/11 01:51:10;;;;;;;;;;;5.50;99.90;;;;;;5044969;28;19909;-89
2023/12/11 01:53:36;;;;;;;;;;;5.60;99.90;;;;;;5022146;28;20332;-89
2023/12/11 01:56:02;;;;;;;;;;;5.60;99.90;;;;;;5035761;28;19988;-89
2023/12/11 01:58:29;;;;;;;;;;;5.50;99.90;;;;;;5033387;28;19909;-89
2023/12/11 02:00:55;;;;;;;;;;;5.60;99.90;;;;;;5037875;28;19919;-89
2023/12/11 02:03:22;;;;;;;;;;;5.60;99.90;;;;;;5025049;28;19905;-90
2023/12/11 02:05:49;;;;;;;;;;;5.60;99.90;;;;;;5051900;28;20007;-88
2023/12/11 02:08:15;;;;;;;;;;;5.60;99.90;;;;;;5023777;28;19909;-90
2023/12/11 02:10:43;;;;;;;;;;;5.70;99.90;;;;;;5023998;28;20397;-91
2023/12/11 02:13:10;;;;;;;;;;;5.60;99.90;;;;;;5017890;28;19913;-89
2023/12/11 02:15:46;;;;;;;;;;;5.70;99.90;;;;;;5017940;28;19987;-89
2023/12/11 02:18:12;;;;;;;;;;;5.70;99.90;;;;;;5018210;28;19908;-88
2023/12/11 02:20:56;;;;;;;;;;;5.80;99.90;;;;;;5037658;28;19916;-90
2023/12/11 02:23:25;;;;;;;;;;;5.80;99.90;;;;;;5018036;28;19909;-87
2023/12/11 02:26:23;;;;;;;;;;;5.90;99.90;;;;;;5019529;28;19952;-90
2023/12/11 02:28:52;;;;;;;;;;;5.90;99.90;;;;;;5004809;28;20371;-91
2023/12/11 02:31:18;;;;;;;;;;;6.00;99.90;;;;;;5014475;28;19968;-89
2023/12/11 02:33:44;;;;;;;;;;;6.00;99.90;;;;;;5055251;28;19952;-89
2023/12/11 02:36:10;;;;;;;;;;;6.00;99.90;;;;;;5017641;28;19987;-89
2023/12/11 02:38:41;;;;;;;;;;;6.10;99.90;;;;;;5034225;28;19996;-89
2023/12/11 02:41:07;;;;;;;;;;;6.10;99.90;;;;;;5040709;28;20007;-89
2023/12/11 02:43:33;;;;;;;;;;;6.10;99.90;;;;;;5053431;28;19958;-89
2023/12/11 02:45:59;;;;;;;;;;;6.10;99.90;;;;;;5053023;28;19908;-90
2023/12/11 02:48:25;;;;;;;;;;;6.10;99.90;;;;;;5022278;28;20084;-90
2023/12/11 02:50:50;;;;;;;;;;;6.20;99.90;;;;;;5028947;28;19908;-90
2023/12/11 02:53:16;;;;;;;;;;;6.20;99.90;;;;;;5021064;28;19939;-90
2023/12/11 02:55:42;;;;;;;;;;;6.30;99.90;;;;;;5045818;28;19909;-91
2023/12/11 02:58:08;;;;;;;;;;;6.20;99.90;;;;;;5038434;28;19909;-89
2023/12/11 03:00:36;;;;;;;;;;;6.20;99.90;;;;;;5040731;28;20360;-90
2023/12/11 03:03:12;;;;;;;;;;;6.30;99.90;;;;;;5040083;28;20007;-90
2023/12/11 03:05:38;;;;;;;;;;;6.30;99.90;;;;;;5029462;28;19919;-90
2023/12/11 03:08:05;;;;;;;;;;;6.40;99.90;;;;;;5037165;28;19909;-90
2023/12/11 03:10:36;;;;;;;;;;;6.40;99.90;;;;;;5019900;28;20393;-90
2023/12/11 03:13:01;;;;;;;;;;;6.40;99.90;;;;;;5019883;28;19962;-89
2023/12/11 03:15:29;;;;;;;;;;;6.40;99.90;;;;;;5020923;28;19917;-90
2023/12/11 03:17:55;;;;;;;;;;;6.50;99.90;;;;;;5020305;28;20382;-88
2023/12/11 03:20:21;;;;;;;;;;;6.40;99.90;;;;;;5038622;28;19951;-90
2023/12/11 03:22:47;;;;;;;;;;;6.50;99.90;;;;;;5020937;28;19913;-91
2023/12/11 03:25:15;;;;;;;;;;;6.50;99.90;;;;;;5049371;28;19908;-90
2023/12/11 03:27:41;;;;;;;;;;;6.50;99.90;;;;;;5025897;28;19909;-89
2023/12/11 03:30:07;;;;;;;;;;;6.50;99.90;;;;;;5017897;28;19920;-90
2023/12/11 03:32:36;;;;;;;;;;;6.50;99.90;;;;;;5033606;28;20007;-89
2023/12/11 03:35:02;;;;;;;;;;;6.60;99.90;;;;;;5036610;28;19920;-89
2023/12/11 03:37:28;;;;;;;;;;;6.60;99.90;;;;;;5023074;28;19923;-90
2023/12/11 03:39:59;;;;;;;;;;;6.60;99.90;;;;;;5040508;28;19909;-92
2023/12/11 03:42:24;;;;;;;;;;;6.70;99.90;;;;;;5020073;28;19909;-90
2023/12/11 03:44:50;;;;;;;;;;;6.70;99.90;;;;;;5021713;28;19932;-89
2023/12/11 03:47:17;;;;;;;;;;;6.60;99.90;;;;;;5055943;28;19922;-89
2023/12/11 03:49:45;;;;;;;;;;;6.60;99.90;;;;;;5030551;28;19905;-90
2023/12/11 03:52:11;;;;;;;;;;;6.70;99.90;;;;;;5037179;28;19908;-89
2023/12/11 03:54:37;;;;;;;;;;;6.70;99.90;;;;;;5020504;28;19908;-89
2023/12/11 03:57:03;;;;;;;;;;;6.70;99.90;;;;;;5051153;28;19916;-90
2023/12/11 03:59:28;;;;;;;;;;;6.70;99.90;;;;;;5025010;28;19915;-89
2023/12/11 04:01:54;;;;;;;;;;;6.70;99.90;;;;;;5042712;28;20448;-90
2023/12/11 04:04:30;;;;;;;;;;;6.70;99.90;;;;;;5025204;28;19905;-90
2023/12/11 04:06:55;;;;;;;;;;;6.80;99.90;;;;;;5069106;28;19912;-90
2023/12/11 04:09:21;;;;;;;;;;;6.80;99.90;;;;;;5036342;28;19909;-90
2023/12/11 04:11:47;;;;;;;;;;;6.80;99.90;;;;;;5074474;28;19944;-87
2023/12/11 04:14:15;;;;;;;;;;;6.70;99.90;;;;;;5006554;28;19913;-88
2023/12/11 04:16:42;;;;;;;;;;;6.70;99.90;;;;;;5033247;28;20047;-88
2023/12/11 04:19:16;;;;;;;;;;;6.70;99.90;;;;;;5023578;28;19920;-89
2023/12/11 04:21:42;;;;;;;;;;;6.70;99.90;;;;;;5029635;28;19916;-88
2023/12/11 04:24:08;;;;;;;;;;;6.70;99.90;;;;;;5036566;28;19941;-91
2023/12/11 04:26:34;;;;;;;;;;;6.80;99.90;;;;;;5026080;28;19924;-88
2023/12/11 04:28:59;;;;;;;;;;;6.80;99.90;;;;;;5021818;28;19994;-90
2023/12/11 04:31:25;;;;;;;;;;;6.80;99.90;;;;;;5034990;28;19909;-89
2023/12/11 04:33:51;;;;;;;;;;;6.80;99.90;;;;;;5025002;28;19919;-90
2023/12/11 04:36:17;;;;;;;;;;;6.90;99.90;;;;;;5036017;28;19909;-89
2023/12/11 04:38:42;;;;;;;;;;;6.90;99.90;;;;;;5019863;28;19909;-90
2023/12/11 04:41:08;;;;;;;;;;;6.90;99.90;;;;;;5018774;28;19917;-89
2023/12/11 04:43:34;;;;;;;;;;;6.90;99.90;;;;;;5030990;28;19916;-89
2023/12/11 04:46:03;;;;;;;;;;;6.90;99.90;;;;;;5018520;28;19920;-89
2023/12/11 04:48:29;;;;;;;;;;;6.90;99.90;;;;;;5017998;28;19931;-89
2023/12/11 04:50:57;;;;;;;;;;;6.90;99.90;;;;;;5019605;28;19912;-88
2023/12/11 04:53:23;;;;;;;;;;;6.90;99.90;;;;;;5020555;28;19909;-90
2023/12/11 04:55:49;;;;;;;;;;;7.00;99.90;;;;;;5046497;28;20387;-92
2023/12/11 04:58:15;;;;;;;;;;;7.00;99.90;;;;;;5029370;28;19915;-93
2023/12/11 05:00:41;;;;;;;;;;;6.90;99.90;;;;;;5023225;28;19916;-89
2023/12/11 05:03:07;;;;;;;;;;;6.90;99.90;;;;;;5038666;28;19915;-93
2023/12/11 05:05:34;;;;;;;;;;;6.90;99.90;;;;;;5035534;28;20375;-91
2023/12/11 05:08:00;;;;;;;;;;;6.90;99.90;;;;;;5017511;28;19924;-89
2023/12/11 05:10:26;;;;;;;;;;;6.90;99.90;;;;;;5039837;28;19909;-91
2023/12/11 05:12:51;;;;;;;;;;;6.90;99.90;;;;;;5043640;28;19912;-91
2023/12/11 05:15:17;;;;;;;;;;;6.90;99.90;;;;;;5018609;28;19919;-90
2023/12/11 05:17:43;;;;;;;;;;;7.00;99.90;;;;;;5017752;28;19989;-90
2023/12/11 05:20:10;;;;;;;;;;;7.00;99.90;;;;;;5041574;28;19956;-91
2023/12/11 05:22:35;;;;;;;;;;;7.00;99.90;;;;;;5029629;28;20421;-91
2023/12/11 05:25:01;;;;;;;;;;;6.90;99.90;;;;;;5033574;28;19951;-90
2023/12/11 05:27:27;;;;;;;;;;;7.00;99.90;;;;;;5016340;28;20299;-89
2023/12/11 05:29:53;;;;;;;;;;;7.00;99.90;;;;;;5049667;28;19913;-91
2023/12/11 05:32:19;;;;;;;;;;;7.00;99.90;;;;;;5038343;28;20362;-90
2023/12/11 05:34:44;;;;;;;;;;;7.00;99.90;;;;;;5038030;28;19908;-91
2023/12/11 05:37:10;;;;;;;;;;;7.00;99.90;;;;;;5042070;28;19909;-90
2023/12/11 05:39:36;;;;;;;;;;;7.00;99.90;;;;;;5017276;28;19909;-91
2023/12/11 05:42:02;;;;;;;;;;;7.00;99.90;;;;;;5034872;28;19909;-91
2023/12/11 05:44:28;;;;;;;;;;;7.10;99.90;;;;;;5019281;28;20268;-88
2023/12/11 05:46:54;;;;;;;;;;;7.00;99.90;;;;;;5035550;28;19913;-90
2023/12/11 05:49:20;;;;;;;;;;;7.00;99.90;;;;;;5017796;28;19908;-90
2023/12/11 05:51:46;;;;;;;;;;;7.10;99.90;;;;;;5015549;28;20268;-91
2023/12/11 05:54:12;;;;;;;;;;;7.10;99.90;;;;;;5050094;28;19913;-90
2023/12/11 05:56:38;;;;;;;;;;;7.00;99.90;;;;;;5016792;28;19908;-90
2023/12/11 05:59:04;;;;;;;;;;;7.00;99.90;;;;;;5017575;28;19959;-91
2023/12/11 06:01:30;;;;;;;;;;;7.00;99.90;;;;;;5018062;28;20004;-90
2023/12/11 06:03:55;;;;;;;;;;;7.00;99.90;;;;;;5014569;28;19999;-90
2023/12/11 06:06:21;;;;;;;;;;;7.00;99.90;;;;;;5050285;28;20267;-90
2023/12/11 06:08:47;;;;;;;;;;;7.00;99.90;;;;;;5023436;28;19917;-91
2023/12/11 06:11:13;;;;;;;;;;;7.00;99.90;;;;;;5026985;28;19908;-89
2023/12/11 06:13:38;;;;;;;;;;;6.90;99.90;;;;;;5021847;28;20003;-89
2023/12/11 06:16:04;;;;;;;;;;;6.90;99.90;;;;;;5055593;28;19959;-90
2023/12/11 06:18:30;;;;;;;;;;;6.90;99.90;;;;;;5028376;28;19934;-90
2023/12/11 06:20:58;;;;;;;;;;;7.00;99.90;;;;;;5041257;28;19908;-89
2023/12/11 06:23:24;;;;;;;;;;;7.00;99.90;;;;;;5019847;28;19933;-88
2023/12/11 06:25:51;;;;;;;;;;;7.00;99.90;;;;;;5051591;28;19905;-87
2023/12/11 06:28:17;;;;;;;;;;;7.00;99.90;;;;;;5004487;28;19919;-89
2023/12/11 06:30:43;;;;;;;;;;;7.00;99.90;;;;;;5037874;28;19995;-90
2023/12/11 06:33:09;;;;;;;;;;;6.90;99.90;;;;;;5019922;28;19912;-90
2023/12/11 06:35:35;;;;;;;;;;;6.80;99.90;;;;;;5023138;28;20382;-89
2023/12/11 06:38:00;;;;;;;;;;;6.80;99.90;;;;;;5032064;28;19916;-89
2023/12/11 06:40:26;;;;;;;;;;;6.70;99.90;;;;;;5019386;28;19905;-88
2023/12/11 06:42:52;;;;;;;;;;;6.80;99.90;;;;;;5019413;28;20529;-89
2023/12/11 06:45:18;;;;;;;;;;;6.80;99.90;;;;;;5038456;28;20007;-89
2023/12/11 06:47:43;;;;;;;;;;;6.80;99.90;;;;;;5029065;28;19913;-89
2023/12/11 06:50:09;;;;;;;;;;;6.80;99.90;;;;;;5039698;28;19913;-87
2023/12/11 06:52:35;;;;;;;;;;;6.80;99.90;;;;;;5030733;28;19916;-90
2023/12/11 06:55:02;;;;;;;;;;;6.90;99.90;;;;;;5030174;28;19924;-89
2023/12/11 06:57:28;;;;;;;;;;;6.90;99.90;;;;;;5023369;28;19963;-89
2023/12/11 06:59:53;;;;;;;;;;;6.90;99.90;;;;;;5053329;28;19909;-89
2023/12/11 07:02:19;;;;;;;;;;;6.90;99.90;;;;;;5020416;28;19928;-89
2023/12/11 07:04:45;;;;;;;;;;;6.90;99.90;;;;;;5037914;28;19990;-87
2023/12/11 07:07:11;;;;;;;;;;;6.80;99.90;;;;;;5052551;28;20457;-89
2023/12/11 07:09:37;;;;;;;;;;;6.80;99.90;;;;;;5052025;28;19912;-88
2023/12/11 07:12:21;;;;;;;;;;;6.80;99.90;;;;;;5070011;28;19918;-88
2023/12/11 07:14:47;;;;;;;;;;;6.80;99.90;;;;;;5025438;28;20003;-89
2023/12/11 07:17:13;;;;;;;;;;;6.80;99.90;;;;;;5031536;28;19913;-88
2023/12/11 07:19:39;;;;;;;;;;;6.80;99.90;;;;;;5062940;28;19909;-91
2023/12/11 07:22:05;;;;;;;;;;;6.80;99.90;;;;;;5017293;28;19920;-89
2023/12/11 07:24:31;;;;;;;;;;;6.70;99.90;;;;;;5022700;28;19909;-89
2023/12/11 07:26:57;;;;;;;;;;;6.60;99.90;;;;;;5023693;28;19909;-89
2023/12/11 07:29:23;;;;;;;;;;;6.60;99.90;;;;;;5019675;28;19935;-89
2023/12/11 07:31:49;;;;;;;;;;;6.50;99.90;;;;;;5044877;28;19956;-87
2023/12/11 07:34:15;;;;;;;;;;;6.50;99.90;;;;;;5039506;28;19956;-88
2023/12/11 07:36:40;;;;;;;;;;;6.60;99.90;;;;;;5022226;28;20393;-87
2023/12/11 07:39:06;;;;;;;;;;;6.60;99.90;;;;;;5019795;28;19913;-87
2023/12/11 07:41:32;;;;;;;;;;;6.60;99.90;;;;;;5018871;28;19908;-87
2023/12/11 07:43:58;;;;;;;;;;;6.60;99.90;;;;;;5020247;28;19920;-86
2023/12/11 07:46:23;;;;;;;;;;;6.60;99.90;;;;;;5015415;28;19909;-87
2023/12/11 07:48:49;;;;;;;;;;;6.60;99.90;;;;;;5050122;28;19913;-88
2023/12/11 07:51:18;;;;;;;;;;;6.70;99.90;;;;;;5038018;28;21688;-88
2023/12/11 07:53:44;;;;;;;;;;;6.70;99.90;;;;;;5032671;28;19917;-87
2023/12/11 07:56:17;;;;;;;;;;;6.70;99.90;;;;;;5018130;28;19916;-89
2023/12/11 07:58:43;;;;;;;;;;;6.70;99.90;;;;;;5030958;28;19995;-89
2023/12/11 08:01:10;;;;;;;;;;;6.70;99.90;;;;;;5019900;28;19909;-87
2023/12/11 08:03:36;;;;;;;;;;;6.70;99.90;;;;;;5019101;28;19935;-86
2023/12/11 08:06:02;;;;;;;;;;;6.70;99.90;;;;;;5050572;28;19920;-89
2023/12/11 08:08:28;;;;;;;;;;;6.70;99.90;;;;;;5043434;28;19909;-89
2023/12/11 08:10:54;;;;;;;;;;;6.70;99.90;;;;;;5038146;28;19933;-88
2023/12/11 08:13:20;;;;;;;;;;;6.70;99.90;;;;;;5049786;28;19916;-88
2023/12/11 08:15:46;;;;;;;;;;;6.70;99.90;;;;;;5014073;28;20309;-88
2023/12/11 08:18:12;;;;;;;;;;;6.70;99.90;;;;;;5029630;28;20371;-88
2023/12/11 08:20:37;;;;;;;;;;;6.80;99.90;;;;;;5064057;28;19916;-87
2023/12/11 08:23:03;;;;;;;;;;;6.80;99.90;;;;;;5016363;28;20298;-88
2023/12/11 08:25:29;;;;;;;;;;;6.80;99.90;;;;;;5047690;28;19916;-88
2023/12/11 08:27:55;;;;;;;;;;;6.80;99.90;;;;;;5034812;28;19908;-88
2023/12/11 08:30:20;;;;;;;;;;;6.80;99.90;;;;;;5040712;28;19905;-88
2023/12/11 08:32:46;;;;;;;;;;;6.90;99.90;;;;;;5035949;28;20428;-89
2023/12/11 08:35:12;;;;;;;;;;;6.90;99.90;;;;;;5038795;28;19927;-89
2023/12/11 08:37:38;;;;;;;;;;;7.00;99.90;;;;;;5039991;28;19912;-87
2023/12/11 08:40:04;;;;;;;;;;;7.00;99.90;;;;;;5017171;28;20555;-88
2023/12/11 08:42:31;;;;;;;;;;;7.10;99.90;;;;;;5013398;28;20323;-88
2023/12/11 08:44:56;;;;;;;;;;;7.20;99.90;;;;;;5018770;28;19921;-88
2023/12/11 08:47:22;;;;;;;;;;;7.30;99.90;;;;;;5055109;28;19912;-88
2023/12/11 08:49:48;;;;;;;;;;;7.40;99.90;;;;;;5050723;28;20063;-87
2023/12/11 08:52:14;;;;;;;;;;;7.30;99.90;;;;;;5036975;28;19999;-89
2023/12/11 08:54:40;;;;;;;;;;;7.40;99.90;;;;;;5034446;28;19917;-86
2023/12/11 08:57:05;;;;;;;;;;;7.40;99.90;;;;;;5041824;28;19908;-89
2023/12/11 08:59:32;;;;;;;;;;;7.40;99.90;;;;;;5022944;28;19913;-89
2023/12/11 09:02:00;;;;;;;;;;;7.50;99.90;;;;;;5007608;28;20575;-90
2023/12/11 09:04:51;;;;;;;;;;;7.50;99.90;;;;;;5036215;28;20695;-91
2023/12/11 09:07:21;;;;;;;;;;;7.50;99.90;;;;;;5049713;28;20274;-89
2023/12/11 09:09:47;;;;;;;;;;;7.60;99.90;;;;;;5033026;28;19912;-88
2023/12/11 09:12:13;;;;;;;;;;;7.70;99.90;;;;;;5042762;28;20013;-89
2023/12/11 09:14:39;;;;;;;;;;;7.80;99.90;;;;;;5035046;28;20391;-89
2023/12/11 09:17:04;;;;;;;;;;;7.80;99.90;;;;;;5018032;28;19954;-89
2023/12/11 09:19:31;;;;;;;;;;;7.90;99.90;;;;;;5025911;28;20367;-89
2023/12/11 09:21:56;;;;;;;;;;;7.90;99.90;;;;;;5047421;28;19959;-90
2023/12/11 09:24:22;;;;;;;;;;;8.00;99.90;;;;;;5046175;28;19913;-90
2023/12/11 09:26:48;;;;;;;;;;;8.00;99.90;;;;;;5043810;28;19908;-89
2023/12/11 09:29:15;;;;;;;;;;;8.10;99.90;;;;;;5026073;28;19916;-89
2023/12/11 09:31:40;;;;;;;;;;;8.10;99.90;;;;;;5044964;28;20286;-90
2023/12/11 09:34:06;;;;;;;;;;;8.10;99.90;;;;;;5050980;28;19912;-87
2023/12/11 09:36:32;;;;;;;;;;;8.10;99.90;;;;;;5025961;28;20397;-87
2023/12/11 09:38:58;;;;;;;;;;;8.20;99.90;;;;;;5014079;28;19917;-89
2023/12/11 09:41:31;;;;;;;;;;;8.10;99.90;;;;;;5035298;28;20370;-88
2023/12/11 09:43:58;;;;;;;;;;;8.10;99.90;;;;;;5017797;28;20663;-88
2023/12/11 09:46:24;;;;;;;;;;;8.10;99.90;;;;;;5017864;28;19955;-89
2023/12/11 09:48:50;;;;;;;;;;;8.10;99.90;;;;;;5017969;28;19995;-91
2023/12/11 09:51:16;;;;;;;;;;;8.10;99.90;;;;;;5024809;28;19936;-89
2023/12/11 09:53:43;;;;;;;;;;;8.20;99.90;;;;;;5023022;28;19966;-89
2023/12/11 09:56:10;;;;;;;;;;;8.10;99.90;;;;;;5033653;28;19912;-88
2023/12/11 09:58:36;;;;;;;;;;;8.10;99.90;;;;;;5017830;28;19999;-89
2023/12/11 10:01:03;;;;;;;;;;;8.20;99.90;;;;;;5042939;28;19948;-91
2023/12/11 10:03:29;;;;;;;;;;;8.20;99.90;;;;;;5051951;28;19916;-89
2023/12/11 10:06:03;;;;;;;;;;;8.20;99.90;;;;;;5017358;28;19913;-89
2023/12/11 10:08:29;;;;;;;;;;;8.30;99.90;;;;;;5023406;28;19960;-89
2023/12/11 10:11:07;;;;;;;;;;;8.30;99.90;;;;;;5017094;28;20318;-90
2023/12/11 10:13:33;;;;;;;;;;;8.30;99.90;;;;;;5015234;28;19913;-90
2023/12/11 10:15:59;;;;;;;;;;;8.40;99.90;;;;;;5018429;28;19915;-90
2023/12/11 10:18:25;;;;;;;;;;;8.40;99.90;;;;;;5052287;28;19955;-92
2023/12/11 10:20:54;;;;;;;;;;;8.30;99.90;;;;;;5038379;28;20388;-90
2023/12/11 10:23:23;;;;;;;;;;;8.30;99.90;;;;;;5023753;28;19938;-89
2023/12/11 10:26:03;;;;;;;;;;;8.30;99.90;;;;;;5056651;28;19982;-91
2023/12/11 10:28:29;;;;;;;;;;;8.30;99.90;;;;;;5026011;28;19909;-91
2023/12/11 10:30:56;;;;;;;;;;;8.30;99.90;;;;;;5032105;28;19920;-89
2023/12/11 10:33:23;;;;;;;;;;;8.20;99.90;;;;;;5038011;28;19913;-91
2023/12/11 10:35:49;;;;;;;;;;;8.20;99.90;;;;;;5019255;28;19930;-89
2023/12/11 10:38:33;;;;;;;;;;;;;;;;;;;;;
2023/12/11 10:41:02;;;;;;;;;;;8.20;99.90;;;;;;5034754;28;20341;-91
2023/12/11 10:43:38;;;;;;;;;;;8.20;99.90;;;;;;5019137;28;19955;-91
2023/12/11 10:46:04;;;;;;;;;;;8.20;99.90;;;;;;5020898;28;20614;-89
2023/12/11 10:48:32;;;;;;;;;;;8.20;99.90;;;;;;5021238;28;19913;-90
2023/12/11 10:50:57;;;;;;;;;;;8.20;99.90;;;;;;5021513;28;19919;-87
2023/12/11 10:53:24;;;;;;;;;;;8.20;99.90;;;;;;5016524;28;19924;-88
2023/12/11 10:55:51;;;;;;;;;;;8.20;99.90;;;;;;5016475;28;19909;-92
2023/12/11 10:58:20;;;;;;;;;;;8.30;99.90;;;;;;5019900;28;19909;-94
2023/12/11 11:00:46;;;;;;;;;;;8.30;99.90;;;;;;5042461;28;20428;-90
2023/12/11 11:03:12;;;;;;;;;;;8.20;99.90;;;;;;5022760;28;19920;-92
2023/12/11 11:05:38;;;;;;;;;;;8.20;99.90;;;;;;5037211;28;20439;-91
2023/12/11 11:08:15;;;;;;;;;;;8.10;99.90;;;;;;5019816;28;20294;-91
2023/12/11 11:10:46;;;;;;;;;;;8.10;99.90;;;;;;5036218;28;19919;-90
2023/12/11 11:13:16;;;;;;;;;;;8.20;99.90;;;;;;5035544;28;19960;-90
2023/12/11 11:15:42;;;;;;;;;;;8.10;99.90;;;;;;5053166;28;19909;-90
2023/12/11 11:18:10;;;;;;;;;;;8.10;99.90;;;;;;5035562;28;19927;-90
2023/12/11 11:20:39;;;;;;;;;;;8.10;99.90;;;;;;5022502;28;19909;-93
2023/12/11 11:23:16;;;;;;;;;;;8.10;99.90;;;;;;5028449;28;19971;-90
2023/12/11 11:25:42;;;;;;;;;;;8.10;99.90;;;;;;5021903;28;19913;-90
2023/12/11 11:28:28;;;;;;;;;;;8.20;99.90;;;;;;5018066;28;19913;-87
2023/12/11 11:30:56;;;;;;;;;;;8.20;99.90;;;;;;5035945;28;19915;-92
2023/12/11 11:33:27;;;;;;;;;;;8.10;99.90;;;;;;5034771;28;20074;-90
2023/12/11 11:35:53;;;;;;;;;;;8.10;99.90;;;;;;5019381;28;19909;-91
2023/12/11 11:38:39;;;;;;;;;;;8.00;99.90;;;;;;5020146;28;19908;-92
2023/12/11 11:41:24;;;;;;;;;;;8.00;99.90;;;;;;5017618;28;19912;-90
2023/12/11 11:43:57;;;;;;;;;;;8.10;99.90;;;;;;5048925;28;20476;-91
2023/12/11 11:46:23;;;;;;;;;;;8.10;99.90;;;;;;5026091;28;19959;-92
2023/12/11 11:48:51;;;;;;;;;;;8.20;99.90;;;;;;5024738;28;20390;-91
2023/12/11 11:51:21;;;;;;;;;;;8.20;99.90;;;;;;5035396;28;19939;-92
2023/12/11 11:53:51;;;;;;;;;;;8.30;99.90;;;;;;5044552;28;20255;-90
2023/12/11 11:56:17;;;;;;;;;;;8.30;99.90;;;;;;5039961;28;19908;-93
2023/12/11 11:58:50;;;;;;;;;;;8.30;99.90;;;;;;5059639;28;19956;-93
2023/12/11 12:01:16;;;;;;;;;;;8.30;99.90;;;;;;5037510;28;19908;-90
2023/12/11 12:03:42;;;;;;;;;;;8.30;99.90;;;;;;5021389;28;19955;-90
2023/12/11 12:06:09;;;;;;;;;;;8.30;99.90;;;;;;5024973;28;20498;-91
2023/12/11 12:08:36;;;;;;;;;;;8.40;99.90;;;;;;5031888;28;20015;-89
2023/12/11 12:11:05;;;;;;;;;;;8.40;99.90;;;;;;5017889;28;19999;-91
2023/12/11 12:13:36;;;;;;;;;;;8.40;99.90;;;;;;5039004;28;20579;-89
2023/12/11 12:16:02;;;;;;;;;;;8.40;99.90;;;;;;5027142;28;19955;-89
2023/12/11 12:18:28;;;;;;;;;;;8.40;99.90;;;;;;5025702;28;19959;-87
2023/12/11 12:21:07;;;;;;;;;;;8.40;99.90;;;;;;5004595;28;19913;-91
2023/12/11 12:23:36;;;;;;;;;;;8.40;99.90;;;;;;5018864;28;19909;-89
2023/12/11 12:26:05;;;;;;;;;;;8.50;99.90;;;;;;5021691;28;19917;-89
2023/12/11 12:28:31;;;;;;;;;;;8.40;99.90;;;;;;5011671;28;19908;-91
2023/12/11 12:30:57;;;;;;;;;;;8.40;99.90;;;;;;5027632;28;19912;-88
2023/12/11 12:33:23;;;;;;;;;;;8.40;99.90;;;;;;5030593;28;19920;-87
2023/12/11 12:35:49;;;;;;;;;;;8.40;99.90;;;;;;5018622;28;19908;-90
2023/12/11 12:38:15;;;;;;;;;;;8.40;99.90;;;;;;5018424;28;19909;-90
2023/12/11 12:40:41;;;;;;;;;;;8.40;99.90;;;;;;5051628;28;19920;-88
2023/12/11 12:43:11;;;;;;;;;;;8.40;99.90;;;;;;5030947;28;19908;-89
2023/12/11 12:45:37;;;;;;;;;;;8.50;99.90;;;;;;5012715;28;19912;-91
2023/12/11 12:48:08;;;;;;;;;;;8.40;99.90;;;;;;5038671;28;20370;-92
2023/12/11 12:51:06;;;;;;;;;;;;;;;;;;;;;
2023/12/11 12:53:35;;;;;;;;;;;8.50;99.90;;;;;;5033965;28;19916;-92
2023/12/11 12:56:12;;;;;;;;;;;8.50;99.90;;;;;;5019385;28;19970;-91
2023/12/11 12:58:38;;;;;;;;;;;8.50;99.90;;;;;;5029207;28;20033;-91
2023/12/11 13:01:04;;;;;;;;;;;8.50;99.90;;;;;;5019949;28;20319;-90
2023/12/11 13:03:30;;;;;;;;;;;8.60;99.90;;;;;;5037423;28;19912;-90
2023/12/11 13:05:59;;;;;;;;;;;8.60;99.90;;;;;;5007007;28;19913;-91
2023/12/11 13:08:41;;;;;;;;;;;8.60;99.90;;;;;;5004144;28;19951;-89
2023/12/11 13:12:01;;;;;;;;;;;8.50;99.90;;;;;;5035107;28;19944;-90
2023/12/11 13:14:45;;;;;;;;;;;8.50;99.90;;;;;;5033620;28;19912;-91
2023/12/11 13:17:22;;;;;;;;;;;8.50;99.90;;;;;;5045515;28;19915;-90
2023/12/11 13:19:51;;;;;;;;;;;8.40;99.90;;;;;;4999172;28;19909;-91
2023/12/11 13:22:16;;;;;;;;;;;8.40;99.90;;;;;;5042022;28;19912;-91
2023/12/11 13:24:45;;;;;;;;;;;8.30;99.90;;;;;;5020939;28;19909;-94
2023/12/11 13:27:11;;;;;;;;;;;8.30;99.90;;;;;;5034833;28;19909;-90
2023/12/11 13:29:37;;;;;;;;;;;8.30;99.90;;;;;;5034616;28;19915;-91
2023/12/11 13:32:03;;;;;;;;;;;8.30;99.90;;;;;;5033871;28;19909;-90
2023/12/11 13:34:30;;;;;;;;;;;8.30;99.90;;;;;;5011579;28;19913;-89
2023/12/11 13:36:55;;;;;;;;;;;8.30;99.90;;;;;;5017421;28;19908;-91
2023/12/11 13:39:21;;;;;;;;;;;8.40;99.90;;;;;;5024247;28;20444;-92
2023/12/11 13:41:47;;;;;;;;;;;8.40;99.90;;;;;;5023333;28;19908;-91
2023/12/11 13:44:13;;;;;;;;;;;8.30;99.90;;;;;;5017855;28;19913;-90
2023/12/11 13:46:39;;;;;;;;;;;8.30;99.90;;;;;;5052376;28;19948;-91
2023/12/11 13:49:05;;;;;;;;;;;8.30;99.90;;;;;;5004081;28;19943;-91
2023/12/11 13:51:31;;;;;;;;;;;8.30;99.90;;;;;;5048142;28;19976;-90
2023/12/11 13:53:59;;;;;;;;;;;8.30;99.90;;;;;;5017560;28;20478;-91
2023/12/11 13:56:25;;;;;;;;;;;8.20;99.90;;;;;;5018253;28;20367;-90
2023/12/11 13:58:56;;;;;;;;;;;8.20;99.90;;;;;;5016715;28;19919;-92
2023/12/11 14:01:25;;;;;;;;;;;8.20;99.90;;;;;;5049248;28;19915;-90
2023/12/11 14:03:53;;;;;;;;;;;8.20;99.90;;;;;;5015811;28;19908;-92
2023/12/11 14:06:20;;;;;;;;;;;8.20;99.90;;;;;;5018063;28;19962;-89
2023/12/11 14:08:56;;;;;;;;;;;;;;;;;;;;;
2023/12/11 14:11:23;;;;;;;;;;;8.30;99.90;;;;;;5051285;28;19908;-91
2023/12/11 14:13:49;;;;;;;;;;;8.30;99.90;;;;;;5028644;28;20418;-91
2023/12/11 14:16:15;;;;;;;;;;;8.30;99.90;;;;;;5010624;28;20066;-91
2023/12/11 14:18:41;;;;;;;;;;;8.30;99.90;;;;;;5010661;28;19945;-93
2023/12/11 14:21:12;;;;;;;;;;;8.40;99.90;;;;;;5037258;28;20259;-93
2023/12/11 14:23:48;;;;;;;;;;;8.30;99.90;;;;;;5018375;28;20436;-95
2023/12/11 14:26:16;;;;;;;;;;;8.30;99.90;;;;;;5019449;28;20000;-91
2023/12/11 14:28:42;;;;;;;;;;;8.30;99.90;;;;;;5046932;28;19917;-92
2023/12/11 14:31:11;;;;;;;;;;;8.30;99.90;;;;;;5028409;28;20016;-91
2023/12/11 14:33:57;;;;;;;;;;;8.30;99.90;;;;;;5020536;28;19974;-91
2023/12/11 14:36:28;;;;;;;;;;;8.30;99.90;;;;;;5038414;28;20000;-92
2023/12/11 14:38:56;;;;;;;;;;;8.30;99.90;;;;;;5024712;28;19924;-89
2023/12/11 14:41:22;;;;;;;;;;;8.30;99.90;;;;;;5016913;28;20381;-92
2023/12/11 14:43:47;;;;;;;;;;;8.40;99.90;;;;;;5038106;28;19981;-88